createdAt,value
2023-05-14T04:55:27.308Z,11.40
2023-05-14T05:00:30.806Z,11.60
2023-05-14T05:05:35.150Z,12.00
2023-05-14T05:10:39.915Z,12.40
2023-05-14T05:15:43.611Z,12.80
2023-05-14T05:20:47.036Z,13.10
2023-05-14T05:25:52.023Z,13.30
2023-05-14T05:30:55.863Z,13.50
2023-05-14T05:35:59.327Z,13.70
2023-05-14T05:41:04.361Z,13.90
2023-05-14T05:46:08.364Z,14.10
2023-05-14T05:51:11.952Z,14.20
2023-05-14T05:56:16.691Z,14.40
2023-05-14T06:01:20.122Z,14.50
2023-05-14T06:06:23.574Z,14.60
2023-05-14T06:11:28.673Z,14.80
2023-05-14T06:16:32.179Z,14.90
2023-05-14T06:21:35.871Z,15.10
2023-05-14T06:26:40.620Z,15.20
2023-05-14T06:31:44.084Z,15.40
2023-05-14T06:36:47.522Z,15.60
2023-05-14T06:41:52.270Z,15.70
2023-05-14T06:46:55.778Z,15.90
2023-05-14T06:51:59.175Z,16.00
2023-05-14T06:57:04.419Z,16.30
2023-05-14T07:02:08.893Z,16.50
2023-05-14T07:07:15.469Z,16.60
2023-05-14T07:12:20.353Z,16.70
2023-05-14T07:17:23.860Z,16.80
2023-05-14T07:22:27.691Z,16.90
2023-05-14T07:27:32.570Z,17.00
2023-05-14T07:32:36.336Z,17.10
2023-05-14T07:37:40.030Z,17.20
2023-05-14T07:42:44.855Z,17.30
2023-05-14T07:47:51.934Z,17.40
2023-05-14T07:52:55.710Z,17.50
2023-05-14T07:58:00.914Z,17.60
2023-05-14T08:03:05.728Z,17.70
2023-05-14T08:08:09.291Z,17.70
2023-05-14T08:13:14.028Z,17.80
2023-05-14T08:18:17.441Z,17.90
2023-05-14T08:23:20.856Z,17.90
2023-05-14T08:28:25.916Z,18.10
2023-05-14T08:33:29.340Z,18.10
2023-05-14T08:38:32.853Z,18.20
2023-05-14T08:43:45.997Z,18.30
2023-05-14T08:48:57.704Z,18.40
2023-05-14T08:54:04.203Z,18.50
2023-05-14T08:59:09.293Z,18.60
2023-05-14T09:04:13.921Z,18.70
2023-05-14T09:09:17.532Z,18.80
2023-05-14T09:14:23.430Z,18.80
2023-05-14T09:19:27.600Z,18.90
2023-05-14T09:24:31.064Z,19.00
2023-05-14T09:29:37.202Z,19.10
2023-05-14T09:34:42.370Z,19.30
2023-05-14T09:39:46.335Z,19.40
2023-05-14T09:44:51.148Z,19.50
2023-05-14T09:49:54.834Z,19.70
2023-05-14T09:54:58.977Z,19.70
2023-05-14T10:00:04.274Z,19.60
2023-05-14T10:05:09.866Z,19.70
2023-05-14T10:10:17.457Z,19.70
2023-05-14T10:15:28.291Z,19.80
2023-05-14T10:20:32.590Z,20.00
2023-05-14T10:25:36.915Z,20.20
2023-05-14T10:30:45.552Z,20.30
2023-05-14T10:35:53.598Z,20.40
2023-05-14T10:41:04.256Z,20.60
2023-05-14T10:46:10.123Z,20.70
2023-05-14T10:51:14.472Z,20.90
2023-05-14T10:56:18.270Z,21.20
2023-05-14T11:01:25.485Z,21.30
2023-05-14T11:06:29.282Z,21.50
2023-05-14T11:11:33.031Z,21.60
2023-05-14T11:16:37.795Z,21.80
2023-05-14T11:21:42.129Z,22.00
2023-05-14T11:26:46.658Z,22.00
2023-05-14T11:31:51.912Z,22.00
2023-05-14T11:36:55.507Z,22.10
2023-05-14T11:41:59.275Z,22.30
2023-05-14T11:47:05.093Z,22.30
2023-05-14T11:52:11.307Z,22.40
2023-05-14T11:57:17.333Z,22.50
2023-05-14T12:02:22.953Z,22.60
2023-05-14T12:07:31.130Z,22.60
2023-05-14T12:12:37.423Z,22.50
2023-05-14T12:17:42.801Z,22.40
2023-05-14T12:22:46.215Z,22.30
2023-05-14T12:27:49.804Z,22.20
2023-05-14T12:32:54.908Z,22.30
2023-05-14T12:37:58.386Z,22.40
2023-05-14T12:43:01.801Z,22.60
2023-05-14T12:48:08.316Z,22.80
2023-05-14T12:53:12.046Z,23.00
2023-05-14T12:58:16.055Z,23.30
2023-05-14T13:03:21.190Z,23.60
2023-05-14T13:08:26.501Z,23.80
2023-05-14T13:13:30.119Z,24.00
2023-05-14T13:18:34.946Z,24.30
2023-05-14T13:23:38.637Z,24.50
2023-05-14T13:28:42.049Z,24.60
2023-05-14T13:33:46.947Z,24.60
2023-05-14T13:38:50.400Z,24.80
2023-05-14T13:43:53.816Z,25.00
2023-05-14T13:48:58.562Z,25.10
2023-05-14T13:54:02.315Z,25.40
2023-05-14T13:59:06.046Z,25.70
2023-05-14T14:04:11.283Z,25.80
2023-05-14T14:09:14.730Z,26.00
2023-05-14T14:14:18.464Z,25.90
2023-05-14T14:19:23.817Z,25.80
2023-05-14T14:24:27.389Z,25.40
2023-05-14T14:29:31.261Z,25.00
2023-05-14T14:34:36.196Z,24.60
2023-05-14T14:39:39.628Z,24.50
2023-05-14T14:44:43.095Z,24.30
2023-05-14T14:49:47.861Z,24.20
2023-05-14T14:54:51.865Z,24.20
2023-05-14T14:59:55.304Z,24.00
2023-05-14T15:05:00.154Z,23.90
2023-05-14T15:10:04.268Z,23.80
2023-05-14T15:15:09.144Z,23.60
2023-05-14T15:20:14.692Z,23.50
2023-05-14T15:25:18.253Z,23.40
2023-05-14T15:30:21.773Z,23.40
2023-05-14T15:35:26.767Z,23.40
2023-05-14T15:40:30.427Z,23.30
2023-05-14T15:45:33.955Z,23.30
2023-05-14T15:50:39.028Z,23.30
2023-05-14T15:55:42.847Z,23.30
2023-05-14T16:00:46.386Z,23.50
2023-05-14T16:05:52.102Z,23.60
2023-05-14T16:10:55.604Z,23.60
2023-05-14T16:16:00.249Z,23.50
2023-05-14T16:21:05.152Z,23.40
2023-05-14T16:26:08.623Z,23.20
2023-05-14T16:31:12.108Z,23.00
2023-05-14T16:36:17.469Z,22.90
2023-05-14T16:41:21.547Z,22.80
2023-05-14T16:46:25.049Z,22.60
2023-05-14T16:51:29.899Z,22.50
2023-05-14T16:56:33.448Z,22.40
2023-05-14T17:01:36.896Z,22.30
2023-05-14T17:06:41.929Z,22.20
2023-05-14T17:11:45.982Z,22.10
2023-05-14T17:16:49.703Z,22.10
2023-05-14T17:21:54.552Z,21.90
2023-05-14T17:26:58.323Z,21.90
2023-05-14T17:32:03.573Z,21.80
2023-05-14T17:37:08.727Z,21.70
2023-05-14T17:42:12.647Z,21.60
2023-05-14T17:47:16.632Z,21.50
2023-05-14T17:52:21.519Z,21.40
2023-05-14T17:57:25.240Z,21.30
2023-05-14T18:02:28.702Z,21.20
2023-05-14T18:07:33.826Z,21.10
2023-05-14T18:12:37.400Z,21.00
2023-05-14T18:17:40.896Z,20.90
2023-05-14T18:22:45.703Z,20.80
2023-05-14T18:27:49.173Z,20.80
2023-05-14T18:32:52.604Z,20.80
2023-05-14T18:37:57.474Z,20.70
2023-05-14T18:43:00.918Z,20.60
2023-05-14T18:48:04.813Z,20.50
2023-05-14T18:53:09.664Z,20.30
2023-05-14T18:58:14.495Z,20.30
2023-05-14T19:03:19.700Z,20.10
2023-05-14T19:08:24.649Z,20.10
2023-05-14T19:13:30.354Z,20.10
2023-05-14T19:18:33.993Z,20.00
2023-05-14T19:23:39.416Z,19.50
2023-05-14T19:28:42.936Z,19.30
2023-05-14T19:33:46.930Z,19.30
2023-05-14T19:38:51.773Z,19.20
2023-05-14T19:43:55.191Z,19.20
2023-05-14T19:48:58.658Z,19.40
2023-05-14T19:54:03.482Z,19.20
2023-05-14T19:59:06.933Z,18.90
2023-05-14T20:04:10.657Z,18.60
2023-05-14T20:09:15.490Z,18.60
2023-05-14T20:14:19.449Z,18.60
2023-05-14T20:19:23.670Z,18.60
2023-05-14T20:24:29.441Z,18.80
2023-05-14T20:29:32.916Z,18.60
2023-05-14T20:34:36.316Z,18.40
2023-05-14T20:39:41.146Z,18.30
2023-05-14T20:44:45.029Z,18.30
2023-05-14T20:49:49.080Z,18.30
2023-05-14T20:54:53.944Z,18.20
2023-05-14T20:59:57.384Z,18.20
2023-05-14T21:05:00.874Z,18.10
2023-05-14T21:10:06.331Z,18.10
2023-05-14T21:15:11.379Z,18.20
2023-05-14T21:20:15.622Z,18.20
2023-05-14T21:25:20.588Z,18.30
2023-05-14T21:30:24.292Z,18.30
2023-05-14T21:35:27.801Z,18.30
2023-05-14T21:40:32.610Z,18.30
2023-05-14T21:45:36.416Z,18.20
2023-05-14T21:50:40.105Z,18.20
2023-05-14T21:55:45.165Z,18.10
2023-05-14T22:00:48.643Z,18.10
2023-05-14T22:05:52.180Z,18.00
2023-05-14T22:10:57.378Z,17.90
2023-05-14T22:16:09.143Z,17.80
2023-05-14T22:21:15.967Z,17.80
2023-05-14T22:26:21.554Z,17.60
